createdAt,value
2019-04-10T00:01:42.579Z,27.85
2019-04-10T00:04:13.031Z,28.00
2019-04-10T00:06:43.092Z,28.95
2019-04-10T00:09:15.350Z,28.05
2019-04-10T00:11:47.222Z,27.98
2019-04-10T00:14:18.371Z,26.85
2019-04-10T00:16:48.942Z,27.22
2019-04-10T00:19:18.763Z,28.20
2019-04-10T00:21:49.429Z,28.55
2019-04-10T00:24:19.868Z,28.50
2019-04-10T00:26:50.715Z,29.75
2019-04-10T00:29:20.379Z,27.00
2019-04-10T00:31:50.791Z,29.32
2019-04-10T00:34:21.264Z,28.70
2019-04-10T00:36:51.663Z,27.65
2019-04-10T00:39:24.793Z,27.98
2019-04-10T00:41:54.810Z,29.65
2019-04-10T00:44:25.758Z,29.20
2019-04-10T00:46:57.317Z,28.23
2019-04-10T00:49:27.129Z,29.25
2019-04-10T00:51:59.559Z,29.05
2019-04-10T00:54:29.451Z,27.60
2019-04-10T00:56:59.283Z,28.55
2019-04-10T00:59:29.049Z,30.10
2019-04-10T01:01:58.866Z,29.70
2019-04-10T01:04:28.723Z,28.12
2019-04-10T01:07:00.114Z,29.45
2019-04-10T01:09:31.113Z,29.10
2019-04-10T01:12:01.532Z,28.38
2019-04-10T01:14:31.818Z,28.70
2019-04-10T01:17:02.224Z,29.35
2019-04-10T01:19:32.658Z,28.65
2019-04-10T01:22:03.108Z,27.77
2019-04-10T01:24:33.478Z,28.23
2019-04-10T01:27:03.772Z,27.80
2019-04-10T01:29:33.662Z,30.05
2019-04-10T01:32:03.987Z,27.98
2019-04-10T01:34:33.777Z,28.83
2019-04-10T01:37:04.699Z,28.65
2019-04-10T01:39:35.277Z,29.52
2019-04-10T01:42:06.061Z,29.23
2019-04-10T01:44:36.457Z,28.47
2019-04-10T01:47:06.924Z,28.38
2019-04-10T01:49:37.646Z,28.73
2019-04-10T01:52:08.918Z,28.57
2019-04-10T01:54:39.614Z,29.18
2019-04-10T01:57:10.300Z,30.08
2019-04-10T01:59:42.419Z,28.60
2019-04-10T02:02:17.569Z,29.92
2019-04-10T02:04:48.017Z,29.18
2019-04-10T02:07:20.028Z,30.12
2019-04-10T02:09:50.654Z,28.67
2019-04-10T02:12:22.882Z,28.60
2019-04-10T02:14:52.660Z,28.02
2019-04-10T02:17:22.607Z,27.32
2019-04-10T02:19:52.661Z,27.87
2019-04-10T02:22:22.601Z,30.02
2019-04-10T02:24:53.319Z,29.92
2019-04-10T02:27:24.534Z,28.10
2019-04-10T02:29:55.768Z,27.73
2019-04-10T02:32:26.585Z,31.20
2019-04-10T02:34:57.641Z,29.92
2019-04-10T02:37:28.605Z,28.52
2019-04-10T02:40:02.349Z,28.70
2019-04-10T02:42:32.394Z,29.27
2019-04-10T02:45:03.142Z,29.87
2019-04-10T02:47:32.903Z,31.05
2019-04-10T02:50:03.531Z,29.75
2019-04-10T02:52:35.029Z,29.42
2019-04-10T02:55:07.793Z,30.60
2019-04-10T02:57:39.073Z,29.65
2019-04-10T03:00:10.670Z,29.20
2019-04-10T03:02:41.682Z,30.50
2019-04-10T03:05:13.584Z,30.48
2019-04-10T03:07:44.395Z,26.90
2019-04-10T03:10:25.331Z,28.57
2019-04-10T03:12:48.448Z,30.57
2019-04-10T03:15:19.589Z,30.95
2019-04-10T03:17:50.515Z,29.63
2019-04-10T03:20:20.490Z,28.42
2019-04-10T03:22:51.444Z,27.70
2019-04-10T03:25:21.863Z,27.40
2019-04-10T03:27:52.547Z,26.52
2019-04-10T03:30:23.441Z,25.12
2019-04-10T03:33:03.367Z,24.35
2019-04-10T03:35:32.473Z,25.95
2019-04-10T03:38:03.019Z,24.60
2019-04-10T03:40:32.776Z,24.75
2019-04-10T03:43:03.512Z,26.60
2019-04-10T03:45:33.395Z,26.30
2019-04-10T03:48:04.796Z,25.52
2019-04-10T03:50:34.589Z,26.85
2019-04-10T03:53:05.452Z,25.52
2019-04-10T03:55:36.843Z,27.30
2019-04-10T03:58:07.146Z,27.20
2019-04-10T04:00:38.307Z,27.00
2019-04-10T04:03:08.838Z,27.37
2019-04-10T04:05:39.086Z,28.70
2019-04-10T04:08:09.391Z,27.00
2019-04-10T04:10:40.453Z,28.00
2019-04-10T04:13:11.224Z,28.70
2019-04-10T04:15:42.624Z,27.70
2019-04-10T04:18:12.988Z,29.77
2019-04-10T04:20:43.442Z,29.98
2019-04-10T04:23:13.755Z,28.00
2019-04-10T04:25:44.208Z,27.07
2019-04-10T04:28:14.692Z,28.98
2019-04-10T04:30:45.688Z,27.35
2019-04-10T04:33:15.528Z,27.60
2019-04-10T04:35:45.921Z,28.77
2019-04-10T04:38:16.341Z,27.30
2019-04-10T04:40:46.764Z,30.25
2019-04-10T04:43:16.771Z,26.87
2019-04-10T04:45:46.532Z,28.12
2019-04-10T04:48:17.434Z,29.65
2019-04-10T04:50:47.266Z,28.92
2019-04-10T04:53:17.069Z,27.62
2019-04-10T04:55:47.081Z,28.20
2019-04-10T04:58:18.085Z,28.70
2019-04-10T05:00:48.648Z,29.00
2019-04-10T05:03:18.642Z,26.25
2019-04-10T05:05:49.965Z,30.27
2019-04-10T05:08:20.034Z,28.80
2019-04-10T05:10:50.052Z,28.42
2019-04-10T05:13:24.429Z,30.10
2019-04-10T05:15:55.482Z,29.52
2019-04-10T05:18:25.840Z,31.12
2019-04-10T05:20:56.748Z,29.42
2019-04-10T05:23:27.197Z,30.35
2019-04-10T05:26:02.379Z,29.42
2019-04-10T05:28:32.942Z,29.42
2019-04-10T05:31:03.690Z,29.10
2019-04-10T05:33:33.358Z,31.82
2019-04-10T05:36:04.795Z,32.70
2019-04-10T05:38:35.484Z,31.75
2019-04-10T05:41:06.933Z,32.33
2019-04-10T05:43:38.405Z,30.88
2019-04-10T05:46:08.297Z,30.77
2019-04-10T05:48:38.562Z,31.20
2019-04-10T05:51:09.375Z,30.97
2019-04-10T05:53:40.766Z,30.57
2019-04-10T05:56:14.505Z,30.02
2019-04-10T05:58:44.851Z,31.42
2019-04-10T06:01:15.698Z,30.08
2019-04-10T06:03:47.334Z,31.15
2019-04-10T06:06:17.736Z,32.00
2019-04-10T06:08:47.505Z,30.60
2019-04-10T06:11:17.348Z,30.45
2019-04-10T06:13:48.572Z,32.33
2019-04-10T06:16:19.526Z,30.37
2019-04-10T06:18:49.411Z,31.62
2019-04-10T06:21:19.219Z,31.80
2019-04-10T06:23:49.847Z,33.45
2019-04-10T06:26:19.967Z,32.05
2019-04-10T06:28:50.526Z,30.70
2019-04-10T06:31:20.961Z,32.25
2019-04-10T06:33:50.987Z,31.68
2019-04-10T06:36:21.558Z,31.00
2019-04-10T06:38:53.009Z,33.15
2019-04-10T06:41:24.283Z,31.37
2019-04-10T06:43:55.290Z,30.55
2019-04-10T06:46:25.063Z,32.88
2019-04-10T06:48:56.329Z,31.87
2019-04-10T06:51:27.261Z,33.83
2019-04-10T06:54:04.612Z,31.90
2019-04-10T06:56:29.243Z,32.13
2019-04-10T06:59:00.362Z,32.10
2019-04-10T07:01:42.303Z,32.38
2019-04-10T07:04:07.621Z,31.33
2019-04-10T07:06:50.353Z,29.25
2019-04-10T07:09:09.719Z,31.52
2019-04-10T07:11:41.111Z,31.75
2019-04-10T07:14:13.979Z,29.90
2019-04-10T07:16:42.611Z,31.20
2019-04-10T07:19:13.171Z,30.37
2019-04-10T07:21:43.508Z,30.77
2019-04-10T07:24:15.082Z,31.75
2019-04-10T07:26:47.714Z,31.95
2019-04-10T07:29:20.275Z,30.40
2019-04-10T07:31:48.763Z,30.35
2019-04-10T07:34:23.906Z,26.15
2019-04-10T07:36:51.885Z,27.65
2019-04-10T07:39:26.872Z,27.27
2019-04-10T07:41:53.617Z,25.43
2019-04-10T07:44:24.262Z,26.62
2019-04-10T07:46:54.912Z,26.50
2019-04-10T07:49:28.522Z,23.80
2019-04-10T07:51:57.025Z,23.05
2019-04-10T07:54:26.806Z,22.48
2019-04-10T07:56:57.851Z,21.25
2019-04-10T07:59:29.227Z,21.70
2019-04-10T08:02:00.065Z,24.02
2019-04-10T08:04:31.100Z,21.23
2019-04-10T08:07:02.996Z,21.77
2019-04-10T08:09:33.458Z,22.60
2019-04-10T08:12:05.035Z,22.07
2019-04-10T08:14:35.769Z,22.58
2019-04-10T08:17:06.171Z,21.02
2019-04-10T08:19:36.955Z,20.62
2019-04-10T08:22:08.286Z,20.82
2019-04-10T08:24:38.559Z,19.98
2019-04-10T08:27:10.225Z,19.92
2019-04-10T08:29:41.143Z,20.62
2019-04-10T08:32:11.920Z,17.80
2019-04-10T08:34:42.105Z,19.12
2019-04-10T08:37:12.375Z,20.57
2019-04-10T08:39:46.422Z,19.90
2019-04-10T08:42:15.189Z,20.08
2019-04-10T08:44:44.950Z,18.40
2019-04-10T08:47:15.230Z,17.80
2019-04-10T08:49:45.889Z,19.30
2019-04-10T08:52:16.584Z,20.65
2019-04-10T08:54:47.131Z,18.77
2019-04-10T08:57:17.171Z,20.10
2019-04-10T08:59:48.329Z,19.98
2019-04-10T09:02:20.032Z,20.65
2019-04-10T09:04:50.628Z,20.17
2019-04-10T09:07:20.589Z,18.32
2019-04-10T09:09:50.345Z,17.20
2019-04-10T09:12:20.156Z,19.35
2019-04-10T09:14:50.122Z,19.90
2019-04-10T09:17:20.960Z,19.32
2019-04-10T09:19:52.146Z,20.10
2019-04-10T09:22:22.541Z,18.12
2019-04-10T09:24:52.946Z,18.90
2019-04-10T09:27:22.725Z,19.05
2019-04-10T09:29:52.538Z,20.43
2019-04-10T09:32:22.392Z,19.90
2019-04-10T09:34:52.179Z,20.20
2019-04-10T09:37:22.078Z,21.27
2019-04-10T09:39:53.546Z,20.08
2019-04-10T09:42:23.932Z,21.25
2019-04-10T09:44:54.665Z,21.52
2019-04-10T09:47:25.290Z,21.57
2019-04-10T09:49:55.574Z,22.00
2019-04-10T09:52:25.971Z,21.50
2019-04-10T09:54:55.870Z,21.48
2019-04-10T09:57:27.190Z,21.37
2019-04-10T09:59:57.153Z,23.55
2019-04-10T10:02:27.437Z,22.80
2019-04-10T10:04:57.789Z,22.73
2019-04-10T10:07:28.440Z,23.42
2019-04-10T10:10:01.260Z,22.73
2019-04-10T10:12:34.265Z,21.80
2019-04-10T10:15:07.132Z,22.42
2019-04-10T10:17:39.071Z,21.27
2019-04-10T10:20:11.326Z,22.32
2019-04-10T10:22:41.301Z,21.52
2019-04-10T10:25:11.646Z,21.20
2019-04-10T10:27:41.388Z,21.17
2019-04-10T10:30:11.650Z,21.52
2019-04-10T10:32:43.807Z,21.73
2019-04-10T10:35:14.958Z,23.60
2019-04-10T10:37:45.004Z,22.75
2019-04-10T10:40:15.709Z,24.63
2019-04-10T10:42:46.173Z,23.45
2019-04-10T10:45:18.498Z,23.85
2019-04-10T10:47:48.634Z,22.70
2019-04-10T10:50:19.635Z,23.98
2019-04-10T10:52:59.679Z,22.35
2019-04-10T10:55:30.299Z,22.93
2019-04-10T10:58:00.208Z,23.57
2019-04-10T11:00:29.938Z,26.65
2019-04-10T11:03:00.262Z,26.77
2019-04-10T11:05:31.967Z,26.55
2019-04-10T11:08:03.068Z,25.62
2019-04-10T11:10:34.383Z,25.80
2019-04-10T11:13:04.303Z,28.02
2019-04-10T11:15:34.683Z,27.62
2019-04-10T11:18:13.845Z,26.00
2019-04-10T11:20:43.966Z,25.95
2019-04-10T11:23:14.034Z,29.63
2019-04-10T11:25:46.459Z,26.25
2019-04-10T11:28:18.561Z,26.07
2019-04-10T11:30:49.170Z,31.30
2019-04-10T11:33:19.806Z,31.42
2019-04-10T11:35:49.534Z,34.15
2019-04-10T11:38:19.443Z,35.13
2019-04-10T11:40:49.800Z,33.83
2019-04-10T11:43:21.580Z,39.13
2019-04-10T11:45:54.172Z,34.83
2019-04-10T11:48:25.300Z,36.28
2019-04-10T11:50:58.931Z,39.18
2019-04-10T11:53:27.310Z,40.78
2019-04-10T11:56:00.123Z,39.58
2019-04-10T11:58:29.595Z,39.15
2019-04-10T12:01:01.576Z,39.10
2019-04-10T12:03:34.951Z,38.60
2019-04-10T12:06:06.243Z,39.25
2019-04-10T12:11:13.859Z,38.67
2019-04-10T12:13:40.809Z,40.55
2019-04-10T12:16:10.595Z,39.05
2019-04-10T12:18:40.577Z,38.17
2019-04-10T12:21:11.021Z,37.38
2019-04-10T12:23:40.942Z,37.10
2019-04-10T12:26:11.690Z,36.95
2019-04-10T12:28:42.301Z,37.53
2019-04-10T12:31:12.771Z,37.98
2019-04-10T12:33:42.564Z,38.23
2019-04-10T12:36:12.393Z,37.93
2019-04-10T12:38:42.226Z,37.05
2019-04-10T12:41:12.258Z,36.38
2019-04-10T12:43:42.992Z,37.30
2019-04-10T12:46:14.662Z,36.33
2019-04-10T12:48:47.304Z,37.05
2019-04-10T12:51:17.451Z,38.95
2019-04-10T12:53:47.742Z,37.45
2019-04-10T12:56:17.849Z,38.78
2019-04-10T12:58:47.777Z,42.17
2019-04-10T13:01:18.429Z,40.52
2019-04-10T13:03:49.479Z,38.88
2019-04-10T13:06:20.063Z,39.95
2019-04-10T13:08:57.867Z,38.95
2019-04-10T13:11:22.910Z,36.08
2019-04-10T13:13:52.795Z,36.20
2019-04-10T13:16:23.756Z,38.35
2019-04-10T13:18:54.443Z,37.28
2019-04-10T13:21:24.788Z,37.88
2019-04-10T13:23:55.268Z,37.40
2019-04-10T13:26:25.998Z,36.55
2019-04-10T13:28:56.728Z,37.58
2019-04-10T13:31:27.643Z,38.83
2019-04-10T13:33:57.448Z,38.30
2019-04-10T13:36:27.278Z,39.13
2019-04-10T13:38:58.212Z,38.28
2019-04-10T13:41:29.722Z,37.58
2019-04-10T13:44:00.295Z,38.80
2019-04-10T13:46:31.021Z,35.65
2019-04-10T13:49:01.946Z,37.80
2019-04-10T13:51:32.585Z,37.48
2019-04-10T13:54:02.641Z,37.75
2019-04-10T13:56:32.924Z,40.38
2019-04-10T13:59:04.766Z,38.17
2019-04-10T14:01:35.992Z,40.33
2019-04-10T14:04:07.037Z,39.88
2019-04-10T14:06:37.915Z,38.25
2019-04-10T14:09:25.989Z,41.15
2019-04-10T14:11:42.165Z,39.83
2019-04-10T14:14:12.688Z,39.53
2019-04-10T14:16:43.158Z,41.00
2019-04-10T14:19:15.055Z,40.98
2019-04-10T14:21:45.082Z,40.58
2019-04-10T14:24:15.713Z,39.65
2019-04-10T14:26:50.487Z,39.60
2019-04-10T14:29:20.536Z,41.28
2019-04-10T14:31:53.170Z,42.33
2019-04-10T14:34:23.986Z,44.18
2019-04-10T14:36:54.807Z,42.03
2019-04-10T14:39:24.612Z,42.08
2019-04-10T14:41:54.386Z,40.30
2019-04-10T14:44:24.355Z,40.83
2019-04-10T14:46:54.946Z,41.30
2019-04-10T14:49:24.987Z,44.27
2019-04-10T14:51:54.818Z,45.85
2019-04-10T14:54:26.041Z,44.90
2019-04-10T14:56:56.803Z,45.90
2019-04-10T14:59:28.215Z,46.35
2019-04-10T15:01:58.570Z,46.18
2019-04-10T15:04:28.903Z,46.23
2019-04-10T15:06:59.279Z,45.38
2019-04-10T15:09:30.718Z,45.88
2019-04-10T15:12:00.904Z,44.50
2019-04-10T15:14:32.841Z,47.25
2019-04-10T15:17:05.897Z,46.77
2019-04-10T15:19:36.339Z,47.23
2019-04-10T15:22:07.445Z,48.85
2019-04-10T15:24:37.872Z,48.55
2019-04-10T15:27:07.703Z,48.23
2019-04-10T15:29:38.537Z,47.88
2019-04-10T15:32:08.968Z,49.50
2019-04-10T15:34:39.644Z,48.30
2019-04-10T15:37:11.283Z,47.17
2019-04-10T15:39:42.937Z,47.88
2019-04-10T15:42:12.628Z,53.40
2019-04-10T15:44:42.771Z,50.20
2019-04-10T15:47:18.375Z,51.45
2019-04-10T15:49:45.275Z,47.62
2019-04-10T15:52:15.144Z,50.12
2019-04-10T15:54:45.831Z,47.78
2019-04-10T15:57:16.399Z,48.52
2019-04-10T15:59:48.222Z,47.43
2019-04-10T16:02:19.573Z,47.70
2019-04-10T16:04:51.059Z,48.50
2019-04-10T16:07:22.542Z,47.75
2019-04-10T16:09:56.246Z,50.20
2019-04-10T16:12:26.931Z,48.48
2019-04-10T16:14:57.076Z,48.50
2019-04-10T16:17:29.388Z,48.17
2019-04-10T16:20:17.557Z,49.50
2019-04-10T16:22:49.525Z,49.63
2019-04-10T16:25:22.023Z,52.27
2019-04-10T16:27:53.300Z,51.25
2019-04-10T16:30:26.271Z,51.37
2019-04-10T16:32:56.842Z,49.40
2019-04-10T16:35:27.370Z,51.50
2019-04-10T16:37:58.147Z,51.23
2019-04-10T16:40:29.944Z,51.73
2019-04-10T16:42:59.928Z,52.98
2019-04-10T16:45:30.701Z,52.50
2019-04-10T16:48:01.123Z,51.50
2019-04-10T16:50:32.332Z,51.90
2019-04-10T16:53:03.326Z,52.15
2019-04-10T16:55:34.593Z,51.73
2019-04-10T16:58:04.449Z,53.15
2019-04-10T17:00:35.360Z,52.88
2019-04-10T17:03:07.455Z,54.20
2019-04-10T17:05:39.776Z,50.38
2019-04-10T17:08:09.832Z,51.48
2019-04-10T17:10:40.776Z,50.70
2019-04-10T17:13:12.231Z,52.15
2019-04-10T17:15:42.626Z,53.85
2019-04-10T17:18:12.543Z,54.65
2019-04-10T17:20:42.526Z,53.45
2019-04-10T17:23:12.792Z,53.92
2019-04-10T17:25:44.423Z,53.73
2019-04-10T17:28:14.387Z,54.25
2019-04-10T17:30:44.405Z,55.75
2019-04-10T17:33:16.466Z,55.00
2019-04-10T17:35:47.457Z,54.65
2019-04-10T17:38:18.448Z,52.50
2019-04-10T17:40:53.231Z,57.48
2019-04-10T17:43:21.076Z,55.05
2019-04-10T17:45:51.469Z,54.38
2019-04-10T17:48:21.982Z,56.08
2019-04-10T17:50:53.168Z,57.13
2019-04-10T17:53:25.100Z,59.03
2019-04-10T17:55:55.948Z,58.30
2019-04-10T17:58:27.459Z,56.60
2019-04-10T18:01:00.022Z,57.00
2019-04-10T18:03:44.852Z,55.95
2019-04-10T18:06:03.431Z,58.83
2019-04-10T18:08:33.253Z,58.00
2019-04-10T18:11:03.816Z,57.70
2019-04-10T18:13:34.186Z,59.63
2019-04-10T18:16:04.585Z,59.77
2019-04-10T18:18:34.385Z,58.40
2019-04-10T18:21:04.988Z,59.63
2019-04-10T18:23:35.618Z,61.37
2019-04-10T18:26:07.385Z,59.80
2019-04-10T18:28:37.998Z,58.87
2019-04-10T18:31:08.434Z,60.60
2019-04-10T18:33:39.916Z,58.73
2019-04-10T18:36:09.731Z,59.27
2019-04-10T18:38:39.642Z,65.95
2019-04-10T18:41:09.595Z,64.55
2019-04-10T18:43:40.346Z,59.30
2019-04-10T18:46:14.742Z,56.68
2019-04-10T18:48:56.851Z,60.40
2019-04-10T18:51:27.331Z,58.40
2019-04-10T18:53:57.564Z,63.78
2019-04-10T18:56:29.137Z,64.20
2019-04-10T18:59:02.697Z,60.63
2019-04-10T19:01:37.026Z,66.45
2019-04-10T19:04:16.251Z,67.95
2019-04-10T19:06:59.243Z,66.17
2019-04-10T19:09:32.368Z,68.12
2019-04-10T19:12:02.978Z,65.30
2019-04-10T19:14:36.445Z,66.12
2019-04-10T19:17:06.734Z,64.27
2019-04-10T19:19:40.317Z,68.40
2019-04-10T19:22:10.857Z,64.95
2019-04-10T19:24:41.667Z,63.50
2019-04-10T19:27:13.242Z,65.47
2019-04-10T19:29:43.417Z,66.67
2019-04-10T19:32:16.251Z,68.22
2019-04-10T19:34:47.678Z,66.80
2019-04-10T19:37:18.585Z,67.12
2019-04-10T19:39:49.164Z,66.82
2019-04-10T19:42:19.468Z,66.95
2019-04-10T19:44:50.998Z,67.05
2019-04-10T19:47:22.045Z,68.17
2019-04-10T19:49:53.011Z,67.25
2019-04-10T19:52:24.415Z,66.33
2019-04-10T19:54:55.972Z,65.37
2019-04-10T19:57:25.852Z,67.05
2019-04-10T19:59:55.870Z,64.50
2019-04-10T20:02:26.687Z,68.30
2019-04-10T20:04:59.066Z,67.55
2019-04-10T20:07:29.673Z,65.50
2019-04-10T20:09:59.470Z,64.42
2019-04-10T20:12:30.789Z,65.35
2019-04-10T20:15:00.695Z,64.37
2019-04-10T20:17:30.609Z,64.75
2019-04-10T20:20:00.474Z,61.75
2019-04-10T20:22:30.815Z,64.42
2019-04-10T20:25:02.021Z,65.03
2019-04-10T20:27:32.368Z,65.78
2019-04-10T20:30:02.166Z,62.65
2019-04-10T20:32:34.275Z,61.77
2019-04-10T20:35:05.977Z,63.68
2019-04-10T20:37:36.592Z,65.78
2019-04-10T20:40:07.107Z,60.03
2019-04-10T20:42:36.940Z,58.30
2019-04-10T20:45:07.346Z,58.92
2019-04-10T20:47:37.866Z,59.80
2019-04-10T20:50:08.021Z,57.25
2019-04-10T20:52:39.744Z,56.40
2019-04-10T20:55:09.699Z,55.43
2019-04-10T20:57:39.564Z,56.68
2019-04-10T21:00:11.707Z,56.42
2019-04-10T21:02:42.831Z,58.58
2019-04-10T21:05:14.960Z,54.83
2019-04-10T21:07:44.148Z,54.93
2019-04-10T21:10:15.020Z,56.13
2019-04-10T21:12:45.437Z,56.55
2019-04-10T21:15:15.718Z,55.58
2019-04-10T21:17:46.507Z,53.48
2019-04-10T21:20:17.968Z,55.30
2019-04-10T21:22:49.348Z,51.37
2019-04-10T21:25:20.809Z,54.18
2019-04-10T21:27:53.305Z,53.17
2019-04-10T21:30:31.728Z,50.83
2019-04-10T21:33:20.486Z,51.13
2019-04-10T21:35:51.739Z,52.05
2019-04-10T21:38:23.581Z,52.80
2019-04-10T21:40:55.032Z,52.00
2019-04-10T21:43:26.208Z,52.48
2019-04-10T21:45:56.012Z,53.52
2019-04-10T21:48:26.512Z,54.40
2019-04-10T21:50:58.105Z,53.55
2019-04-10T21:53:31.652Z,52.58
2019-04-10T21:56:00.246Z,52.62
2019-04-10T21:58:30.442Z,51.40
2019-04-10T22:01:03.529Z,53.23
2019-04-10T22:03:35.767Z,54.58
2019-04-10T22:06:20.272Z,54.03
2019-04-10T22:09:06.669Z,52.27
2019-04-10T22:11:37.836Z,51.45
2019-04-10T22:14:09.094Z,52.98
2019-04-10T22:16:40.661Z,53.17
2019-04-10T22:19:10.624Z,52.95
2019-04-10T22:21:40.405Z,51.42
2019-04-10T22:24:10.238Z,52.93
2019-04-10T22:26:40.331Z,51.80
2019-04-10T22:29:11.164Z,51.37
2019-04-10T22:31:41.893Z,52.75
2019-04-10T22:34:11.801Z,50.67
2019-04-10T22:36:41.768Z,50.30
2019-04-10T22:39:13.272Z,50.25
2019-04-10T22:41:43.167Z,50.00
2019-04-10T22:44:13.869Z,50.52
2019-04-10T22:46:44.644Z,49.95
2019-04-10T22:49:15.115Z,49.90
2019-04-10T22:51:45.992Z,46.13
2019-04-10T22:54:16.365Z,46.18
2019-04-10T22:56:46.255Z,45.88
2019-04-10T22:59:16.295Z,47.33
2019-04-10T23:01:58.077Z,45.73
2019-04-10T23:04:17.819Z,45.05
2019-04-10T23:06:49.211Z,46.95
2019-04-10T23:09:20.205Z,46.02
2019-04-10T23:11:51.888Z,47.38
2019-04-10T23:14:22.740Z,45.20
2019-04-10T23:16:53.049Z,46.05
2019-04-10T23:19:22.892Z,42.45
2019-04-10T23:21:52.741Z,48.17
2019-04-10T23:24:24.668Z,45.25
2019-04-10T23:26:55.479Z,46.98
2019-04-10T23:29:26.329Z,45.45
2019-04-10T23:31:56.758Z,46.50
2019-04-10T23:34:26.544Z,46.50
2019-04-10T23:36:56.588Z,46.48
2019-04-10T23:39:26.365Z,44.50
2019-04-10T23:41:57.011Z,43.87
2019-04-10T23:44:27.374Z,45.33
2019-04-10T23:46:57.841Z,44.20
2019-04-10T23:49:28.277Z,44.38
2019-04-10T23:51:59.091Z,46.28
2019-04-10T23:54:29.536Z,46.23
2019-04-10T23:56:59.275Z,42.55
2019-04-10T23:59:29.287Z,43.78
